sensor_id;sensor_type;location;lat;lon;timestamp;temperature;humidity
435;DHT22;204;48.942;9.256;2023-12-28T00:02:07;3.50;1.00
435;DHT22;204;48.942;9.256;2023-12-28T00:04:32;3.50;1.00
435;DHT22;204;48.942;9.256;2023-12-28T00:07:01;3.60;1.00
435;DHT22;204;48.942;9.256;2023-12-28T00:09:27;3.60;1.00
435;DHT22;204;48.942;9.256;2023-12-28T00:11:53;3.60;1.00
435;DHT22;204;48.942;9.256;2023-12-28T00:14:18;3.60;1.00
435;DHT22;204;48.942;9.256;2023-12-28T00:16:44;3.60;1.00
435;DHT22;204;48.942;9.256;2023-12-28T00:19:09;3.60;1.00
435;DHT22;204;48.942;9.256;2023-12-28T00:21:35;3.50;1.00
435;DHT22;204;48.942;9.256;2023-12-28T00:24:00;3.50;1.00
435;DHT22;204;48.942;9.256;2023-12-28T00:26:26;3.50;1.00
435;DHT22;204;48.942;9.256;2023-12-28T00:28:51;3.50;1.00
435;DHT22;204;48.942;9.256;2023-12-28T00:31:17;3.50;1.00
435;DHT22;204;48.942;9.256;2023-12-28T00:33:43;3.50;1.00
435;DHT22;204;48.942;9.256;2023-12-28T00:36:08;3.50;1.00
435;DHT22;204;48.942;9.256;2023-12-28T00:38:34;3.50;1.00
435;DHT22;204;48.942;9.256;2023-12-28T00:40:59;3.50;1.00
435;DHT22;204;48.942;9.256;2023-12-28T00:43:25;3.50;1.00
435;DHT22;204;48.942;9.256;2023-12-28T00:45:50;3.40;1.00
435;DHT22;204;48.942;9.256;2023-12-28T00:48:16;3.40;1.00
435;DHT22;204;48.942;9.256;2023-12-28T00:50:41;3.40;1.00
435;DHT22;204;48.942;9.256;2023-12-28T00:53:07;3.40;1.00
435;DHT22;204;48.942;9.256;2023-12-28T00:55:32;3.40;1.00
435;DHT22;204;48.942;9.256;2023-12-28T00:57:58;3.40;1.00
435;DHT22;204;48.942;9.256;2023-12-28T01:00:24;3.40;1.00
435;DHT22;204;48.942;9.256;2023-12-28T01:02:49;3.40;1.00
435;DHT22;204;48.942;9.256;2023-12-28T01:05:16;3.50;1.00
435;DHT22;204;48.942;9.256;2023-12-28T01:07:42;3.50;1.00
435;DHT22;204;48.942;9.256;2023-12-28T01:10:07;3.50;1.00
435;DHT22;204;48.942;9.256;2023-12-28T01:12:33;3.50;1.00
435;DHT22;204;48.942;9.256;2023-12-28T01:14:59;3.50;1.00
435;DHT22;204;48.942;9.256;2023-12-28T01:17:24;3.40;1.00
435;DHT22;204;48.942;9.256;2023-12-28T01:19:50;3.40;1.00
435;DHT22;204;48.942;9.256;2023-12-28T01:22:15;3.40;1.00
435;DHT22;204;48.942;9.256;2023-12-28T01:24:41;3.30;1.00
435;DHT22;204;48.942;9.256;2023-12-28T01:27:07;3.30;1.00
435;DHT22;204;48.942;9.256;2023-12-28T01:29:32;3.30;1.00
435;DHT22;204;48.942;9.256;2023-12-28T01:32:03;3.30;1.00
435;DHT22;204;48.942;9.256;2023-12-28T01:34:28;3.30;1.00
435;DHT22;204;48.942;9.256;2023-12-28T01:36:54;3.30;1.00
435;DHT22;204;48.942;9.256;2023-12-28T01:39:19;3.30;1.00
435;DHT22;204;48.942;9.256;2023-12-28T01:41:45;3.30;1.00
435;DHT22;204;48.942;9.256;2023-12-28T01:44:11;3.30;1.00
435;DHT22;204;48.942;9.256;2023-12-28T01:46:37;3.20;1.00
435;DHT22;204;48.942;9.256;2023-12-28T01:49:03;3.20;1.00
435;DHT22;204;48.942;9.256;2023-12-28T01:51:30;3.20;1.00
435;DHT22;204;48.942;9.256;2023-12-28T01:53:57;3.10;1.00
435;DHT22;204;48.942;9.256;2023-12-28T01:56:23;3.20;1.00
435;DHT22;204;48.942;9.256;2023-12-28T01:58:49;3.10;1.00
435;DHT22;204;48.942;9.256;2023-12-28T02:01:17;3.10;1.00
435;DHT22;204;48.942;9.256;2023-12-28T02:03:42;3.20;1.00
435;DHT22;204;48.942;9.256;2023-12-28T02:06:08;3.10;1.00
435;DHT22;204;48.942;9.256;2023-12-28T02:08:34;3.20;1.00
435;DHT22;204;48.942;9.256;2023-12-28T02:10:59;3.20;1.00
435;DHT22;204;48.942;9.256;2023-12-28T02:13:25;3.20;1.00
435;DHT22;204;48.942;9.256;2023-12-28T02:15:56;3.20;1.00
435;DHT22;204;48.942;9.256;2023-12-28T02:18:29;3.20;1.00
435;DHT22;204;48.942;9.256;2023-12-28T02:20:57;3.20;1.00
435;DHT22;204;48.942;9.256;2023-12-28T02:23:23;3.20;1.00
435;DHT22;204;48.942;9.256;2023-12-28T02:25:49;3.20;1.00
435;DHT22;204;48.942;9.256;2023-12-28T02:28:15;3.30;1.00
435;DHT22;204;48.942;9.256;2023-12-28T02:30:40;3.30;1.00
435;DHT22;204;48.942;9.256;2023-12-28T02:35:39;3.40;1.00
435;DHT22;204;48.942;9.256;2023-12-28T02:38:11;3.40;1.00
435;DHT22;204;48.942;9.256;2023-12-28T02:40:42;3.40;1.00
435;DHT22;204;48.942;9.256;2023-12-28T02:43:09;3.50;1.00
435;DHT22;204;48.942;9.256;2023-12-28T02:45:36;3.50;1.00
435;DHT22;204;48.942;9.256;2023-12-28T02:48:02;3.50;1.00
435;DHT22;204;48.942;9.256;2023-12-28T02:50:28;3.50;1.00
435;DHT22;204;48.942;9.256;2023-12-28T02:52:56;3.50;1.00
435;DHT22;204;48.942;9.256;2023-12-28T02:55:21;3.60;1.00
435;DHT22;204;48.942;9.256;2023-12-28T02:57:49;3.70;1.00
435;DHT22;204;48.942;9.256;2023-12-28T03:00:14;3.80;1.00
435;DHT22;204;48.942;9.256;2023-12-28T03:02:40;3.80;1.00
435;DHT22;204;48.942;9.256;2023-12-28T03:05:06;4.00;1.00
435;DHT22;204;48.942;9.256;2023-12-28T03:07:33;4.10;1.00
435;DHT22;204;48.942;9.256;2023-12-28T03:09:58;4.20;1.00
435;DHT22;204;48.942;9.256;2023-12-28T03:12:25;4.40;1.00
435;DHT22;204;48.942;9.256;2023-12-28T03:14:51;4.60;1.00
435;DHT22;204;48.942;9.256;2023-12-28T03:17:16;4.70;1.00
435;DHT22;204;48.942;9.256;2023-12-28T03:19:42;4.90;1.00
435;DHT22;204;48.942;9.256;2023-12-28T03:22:07;4.90;1.00
435;DHT22;204;48.942;9.256;2023-12-28T03:24:33;5.00;1.00
435;DHT22;204;48.942;9.256;2023-12-28T03:26:59;5.10;1.00
435;DHT22;204;48.942;9.256;2023-12-28T03:29:24;5.10;1.00
435;DHT22;204;48.942;9.256;2023-12-28T03:31:50;5.10;1.00
435;DHT22;204;48.942;9.256;2023-12-28T03:34:16;5.10;99.90
435;DHT22;204;48.942;9.256;2023-12-28T03:36:41;5.10;99.90
435;DHT22;204;48.942;9.256;2023-12-28T03:39:08;5.30;99.90
435;DHT22;204;48.942;9.256;2023-12-28T03:41:33;5.40;99.90
435;DHT22;204;48.942;9.256;2023-12-28T03:43:59;5.50;99.90
435;DHT22;204;48.942;9.256;2023-12-28T03:46:24;5.70;99.90
435;DHT22;204;48.942;9.256;2023-12-28T03:48:52;5.80;99.90
435;DHT22;204;48.942;9.256;2023-12-28T03:51:18;5.80;99.90
435;DHT22;204;48.942;9.256;2023-12-28T03:53:44;5.90;99.90
435;DHT22;204;48.942;9.256;2023-12-28T03:56:21;6.00;99.90
435;DHT22;204;48.942;9.256;2023-12-28T03:58:47;6.10;99.90
435;DHT22;204;48.942;9.256;2023-12-28T04:01:12;6.20;99.90
435;DHT22;204;48.942;9.256;2023-12-28T04:03:38;6.30;99.90
435;DHT22;204;48.942;9.256;2023-12-28T04:06:04;6.40;99.90
435;DHT22;204;48.942;9.256;2023-12-28T04:08:29;6.40;99.90
435;DHT22;204;48.942;9.256;2023-12-28T04:10:55;6.40;99.90
435;DHT22;204;48.942;9.256;2023-12-28T04:13:20;6.50;99.90
435;DHT22;204;48.942;9.256;2023-12-28T04:15:46;6.60;99.90
435;DHT22;204;48.942;9.256;2023-12-28T04:18:11;6.70;99.90
435;DHT22;204;48.942;9.256;2023-12-28T04:20:37;6.70;99.90
435;DHT22;204;48.942;9.256;2023-12-28T04:23:03;6.90;99.90
435;DHT22;204;48.942;9.256;2023-12-28T04:25:28;7.00;99.90
435;DHT22;204;48.942;9.256;2023-12-28T04:27:54;7.10;99.90
435;DHT22;204;48.942;9.256;2023-12-28T04:30:19;7.20;99.90
435;DHT22;204;48.942;9.256;2023-12-28T04:32:45;7.20;99.90
435;DHT22;204;48.942;9.256;2023-12-28T04:35:10;7.10;99.90
435;DHT22;204;48.942;9.256;2023-12-28T04:37:36;7.20;99.90
435;DHT22;204;48.942;9.256;2023-12-28T04:40:02;7.20;99.90
435;DHT22;204;48.942;9.256;2023-12-28T04:42:29;7.20;99.90
435;DHT22;204;48.942;9.256;2023-12-28T04:44:54;7.20;99.90
435;DHT22;204;48.942;9.256;2023-12-28T04:47:20;7.30;99.90
435;DHT22;204;48.942;9.256;2023-12-28T04:49:45;7.30;99.90
435;DHT22;204;48.942;9.256;2023-12-28T04:52:11;7.40;99.90
435;DHT22;204;48.942;9.256;2023-12-28T04:54:40;7.40;99.90
435;DHT22;204;48.942;9.256;2023-12-28T04:57:05;7.50;99.90
435;DHT22;204;48.942;9.256;2023-12-28T04:59:40;7.50;99.90
435;DHT22;204;48.942;9.256;2023-12-28T05:02:06;7.50;99.90
435;DHT22;204;48.942;9.256;2023-12-28T05:04:31;7.60;99.90
435;DHT22;204;48.942;9.256;2023-12-28T05:06:57;7.60;99.90
435;DHT22;204;48.942;9.256;2023-12-28T05:09:22;7.60;99.90
435;DHT22;204;48.942;9.256;2023-12-28T05:11:48;7.70;99.90
435;DHT22;204;48.942;9.256;2023-12-28T05:14:14;7.70;99.90
435;DHT22;204;48.942;9.256;2023-12-28T05:16:39;7.70;99.90
435;DHT22;204;48.942;9.256;2023-12-28T05:19:05;7.70;99.90
435;DHT22;204;48.942;9.256;2023-12-28T05:21:30;7.70;99.90
435;DHT22;204;48.942;9.256;2023-12-28T05:23:56;7.70;99.90
435;DHT22;204;48.942;9.256;2023-12-28T05:26:21;7.80;99.90
435;DHT22;204;48.942;9.256;2023-12-28T05:28:48;7.90;99.90
435;DHT22;204;48.942;9.256;2023-12-28T05:31:14;7.90;99.90
435;DHT22;204;48.942;9.256;2023-12-28T05:33:40;8.00;99.90
435;DHT22;204;48.942;9.256;2023-12-28T05:36:06;8.00;99.90
435;DHT22;204;48.942;9.256;2023-12-28T05:38:31;8.10;99.90
435;DHT22;204;48.942;9.256;2023-12-28T05:41:00;8.20;99.90
435;DHT22;204;48.942;9.256;2023-12-28T05:43:25;8.30;99.90
435;DHT22;204;48.942;9.256;2023-12-28T05:45:51;8.30;99.90
435;DHT22;204;48.942;9.256;2023-12-28T05:48:16;8.40;99.90
435;DHT22;204;48.942;9.256;2023-12-28T05:50:42;8.40;99.90
435;DHT22;204;48.942;9.256;2023-12-28T05:53:07;8.40;99.90
435;DHT22;204;48.942;9.256;2023-12-28T05:55:42;8.40;99.90
435;DHT22;204;48.942;9.256;2023-12-28T05:58:09;8.40;99.90
435;DHT22;204;48.942;9.256;2023-12-28T06:00:34;8.40;99.90
435;DHT22;204;48.942;9.256;2023-12-28T06:03:05;8.40;99.90
435;DHT22;204;48.942;9.256;2023-12-28T06:05:31;8.50;99.90
435;DHT22;204;48.942;9.256;2023-12-28T06:07:57;8.50;99.90
435;DHT22;204;48.942;9.256;2023-12-28T06:10:23;8.50;99.90
435;DHT22;204;48.942;9.256;2023-12-28T06:12:49;8.50;99.90
435;DHT22;204;48.942;9.256;2023-12-28T06:15:15;8.50;99.90
435;DHT22;204;48.942;9.256;2023-12-28T06:17:40;8.50;99.90
435;DHT22;204;48.942;9.256;2023-12-28T06:20:06;8.40;99.90
435;DHT22;204;48.942;9.256;2023-12-28T06:22:34;8.40;99.90
435;DHT22;204;48.942;9.256;2023-12-28T06:25:01;8.50;99.90
435;DHT22;204;48.942;9.256;2023-12-28T06:27:27;8.60;99.90
435;DHT22;204;48.942;9.256;2023-12-28T06:29:53;8.50;99.90
435;DHT22;204;48.942;9.256;2023-12-28T06:32:18;8.60;99.90
435;DHT22;204;48.942;9.256;2023-12-28T06:34:44;8.60;99.90
435;DHT22;204;48.942;9.256;2023-12-28T06:37:09;8.60;99.90
435;DHT22;204;48.942;9.256;2023-12-28T06:39:35;8.60;99.90
435;DHT22;204;48.942;9.256;2023-12-28T06:42:00;8.60;99.90
435;DHT22;204;48.942;9.256;2023-12-28T06:44:26;8.60;99.90
435;DHT22;204;48.942;9.256;2023-12-28T06:46:51;8.60;99.90
435;DHT22;204;48.942;9.256;2023-12-28T06:49:17;8.60;99.90
435;DHT22;204;48.942;9.256;2023-12-28T06:51:42;8.60;99.90
435;DHT22;204;48.942;9.256;2023-12-28T06:54:10;8.60;99.90
435;DHT22;204;48.942;9.256;2023-12-28T06:56:36;8.70;99.90
435;DHT22;204;48.942;9.256;2023-12-28T06:59:02;8.80;99.90
435;DHT22;204;48.942;9.256;2023-12-28T07:01:27;8.80;99.90
435;DHT22;204;48.942;9.256;2023-12-28T07:03:53;8.80;99.90
435;DHT22;204;48.942;9.256;2023-12-28T07:06:18;8.80;99.90
435;DHT22;204;48.942;9.256;2023-12-28T07:08:44;8.80;99.90
435;DHT22;204;48.942;9.256;2023-12-28T07:11:10;8.70;99.90
435;DHT22;204;48.942;9.256;2023-12-28T07:13:36;8.60;99.90
435;DHT22;204;48.942;9.256;2023-12-28T07:16:02;8.50;99.90
435;DHT22;204;48.942;9.256;2023-12-28T07:18:28;8.50;99.90
435;DHT22;204;48.942;9.256;2023-12-28T07:20:53;8.30;99.90
435;DHT22;204;48.942;9.256;2023-12-28T07:23:19;8.30;99.90
435;DHT22;204;48.942;9.256;2023-12-28T07:25:45;8.20;99.90
435;DHT22;204;48.942;9.256;2023-12-28T07:28:10;8.20;99.90
435;DHT22;204;48.942;9.256;2023-12-28T07:30:37;8.20;99.90
435;DHT22;204;48.942;9.256;2023-12-28T07:33:03;8.20;99.90
435;DHT22;204;48.942;9.256;2023-12-28T07:35:28;8.20;99.90
435;DHT22;204;48.942;9.256;2023-12-28T07:37:54;8.10;99.90
435;DHT22;204;48.942;9.256;2023-12-28T07:40:20;8.10;99.90
435;DHT22;204;48.942;9.256;2023-12-28T07:42:45;8.20;99.90
435;DHT22;204;48.942;9.256;2023-12-28T07:45:11;8.20;99.90
435;DHT22;204;48.942;9.256;2023-12-28T07:47:36;8.20;99.90
435;DHT22;204;48.942;9.256;2023-12-28T07:50:02;8.30;99.90
435;DHT22;204;48.942;9.256;2023-12-28T07:52:29;8.30;99.90
435;DHT22;204;48.942;9.256;2023-12-28T07:54:54;8.40;99.90
435;DHT22;204;48.942;9.256;2023-12-28T07:57:20;8.40;99.90
435;DHT22;204;48.942;9.256;2023-12-28T07:59:46;8.50;99.90
435;DHT22;204;48.942;9.256;2023-12-28T08:02:11;8.60;99.90
435;DHT22;204;48.942;9.256;2023-12-28T08:04:37;8.70;99.90
435;DHT22;204;48.942;9.256;2023-12-28T08:07:03;8.70;99.90
435;DHT22;204;48.942;9.256;2023-12-28T08:09:29;8.70;99.90
435;DHT22;204;48.942;9.256;2023-12-28T08:11:55;8.80;99.90
435;DHT22;204;48.942;9.256;2023-12-28T08:14:21;8.90;99.90
435;DHT22;204;48.942;9.256;2023-12-28T08:16:46;8.90;99.90
435;DHT22;204;48.942;9.256;2023-12-28T08:19:12;8.90;99.90
435;DHT22;204;48.942;9.256;2023-12-28T08:21:38;9.00;99.90
435;DHT22;204;48.942;9.256;2023-12-28T08:24:04;9.10;99.90
435;DHT22;204;48.942;9.256;2023-12-28T08:26:29;9.00;99.90
435;DHT22;204;48.942;9.256;2023-12-28T08:28:55;9.00;99.90
435;DHT22;204;48.942;9.256;2023-12-28T08:31:21;9.00;99.90
435;DHT22;204;48.942;9.256;2023-12-28T08:33:46;9.10;99.90
435;DHT22;204;48.942;9.256;2023-12-28T08:36:12;9.10;99.90
435;DHT22;204;48.942;9.256;2023-12-28T08:38:38;9.10;99.90
435;DHT22;204;48.942;9.256;2023-12-28T08:41:04;9.10;99.90
435;DHT22;204;48.942;9.256;2023-12-28T08:43:34;9.10;99.90
435;DHT22;204;48.942;9.256;2023-12-28T08:46:00;9.10;99.90
435;DHT22;204;48.942;9.256;2023-12-28T08:48:26;9.20;99.90
435;DHT22;204;48.942;9.256;2023-12-28T08:50:51;9.30;99.90
435;DHT22;204;48.942;9.256;2023-12-28T08:53:17;9.20;99.90
435;DHT22;204;48.942;9.256;2023-12-28T08:55:42;9.20;99.90
435;DHT22;204;48.942;9.256;2023-12-28T08:58:08;9.20;99.90
435;DHT22;204;48.942;9.256;2023-12-28T09:00:33;9.10;99.90
435;DHT22;204;48.942;9.256;2023-12-28T09:02:59;9.00;99.90
435;DHT22;204;48.942;9.256;2023-12-28T09:05:25;9.10;99.90
435;DHT22;204;48.942;9.256;2023-12-28T09:07:50;9.00;99.90
435;DHT22;204;48.942;9.256;2023-12-28T09:10:16;9.00;99.90
435;DHT22;204;48.942;9.256;2023-12-28T09:12:41;9.00;99.90
435;DHT22;204;48.942;9.256;2023-12-28T09:15:07;9.00;99.90
435;DHT22;204;48.942;9.256;2023-12-28T09:17:35;9.10;99.90
435;DHT22;204;48.942;9.256;2023-12-28T09:20:02;9.00;99.90
435;DHT22;204;48.942;9.256;2023-12-28T09:22:28;8.90;99.90
435;DHT22;204;48.942;9.256;2023-12-28T09:24:54;8.90;99.90
435;DHT22;204;48.942;9.256;2023-12-28T09:27:19;8.90;99.90
435;DHT22;204;48.942;9.256;2023-12-28T09:29:45;9.00;99.90
435;DHT22;204;48.942;9.256;2023-12-28T09:32:11;9.10;99.90
435;DHT22;204;48.942;9.256;2023-12-28T09:34:37;9.20;99.90
435;DHT22;204;48.942;9.256;2023-12-28T09:37:02;9.30;99.90
435;DHT22;204;48.942;9.256;2023-12-28T09:39:28;9.50;99.90
435;DHT22;204;48.942;9.256;2023-12-28T09:41:59;9.70;99.90
435;DHT22;204;48.942;9.256;2023-12-28T09:44:26;9.80;99.90
435;DHT22;204;48.942;9.256;2023-12-28T09:46:54;9.90;99.90
435;DHT22;204;48.942;9.256;2023-12-28T09:49:21;10.00;99.90
435;DHT22;204;48.942;9.256;2023-12-28T09:51:48;10.20;99.90
435;DHT22;204;48.942;9.256;2023-12-28T09:54:13;10.20;99.90
435;DHT22;204;48.942;9.256;2023-12-28T09:56:40;10.30;99.90
435;DHT22;204;48.942;9.256;2023-12-28T09:59:06;10.30;99.90
435;DHT22;204;48.942;9.256;2023-12-28T10:01:34;10.20;99.90
435;DHT22;204;48.942;9.256;2023-12-28T10:04:00;10.20;99.90
435;DHT22;204;48.942;9.256;2023-12-28T10:06:28;10.30;99.90
435;DHT22;204;48.942;9.256;2023-12-28T10:08:53;10.20;99.90
435;DHT22;204;48.942;9.256;2023-12-28T10:11:21;10.20;99.90
435;DHT22;204;48.942;9.256;2023-12-28T10:13:48;10.30;99.90
435;DHT22;204;48.942;9.256;2023-12-28T10:16:15;10.30;99.90
435;DHT22;204;48.942;9.256;2023-12-28T10:18:42;10.30;99.90
435;DHT22;204;48.942;9.256;2023-12-28T10:21:08;10.30;99.90
435;DHT22;204;48.942;9.256;2023-12-28T10:23:34;10.20;99.90
435;DHT22;204;48.942;9.256;2023-12-28T10:25:59;10.10;99.90
435;DHT22;204;48.942;9.256;2023-12-28T10:28:26;10.10;99.90
435;DHT22;204;48.942;9.256;2023-12-28T10:30:58;10.00;99.90
435;DHT22;204;48.942;9.256;2023-12-28T10:33:23;10.00;99.90
435;DHT22;204;48.942;9.256;2023-12-28T10:35:50;9.90;99.90
435;DHT22;204;48.942;9.256;2023-12-28T10:38:17;9.90;99.90
435;DHT22;204;48.942;9.256;2023-12-28T10:40:44;10.00;99.90
435;DHT22;204;48.942;9.256;2023-12-28T10:43:13;9.90;99.90
435;DHT22;204;48.942;9.256;2023-12-28T10:45:40;9.90;99.90
435;DHT22;204;48.942;9.256;2023-12-28T10:48:11;9.90;99.90
435;DHT22;204;48.942;9.256;2023-12-28T10:50:41;10.00;99.90
435;DHT22;204;48.942;9.256;2023-12-28T10:53:39;10.00;99.90
435;DHT22;204;48.942;9.256;2023-12-28T10:56:45;10.10;99.90
435;DHT22;204;48.942;9.256;2023-12-28T10:59:56;10.20;99.90
435;DHT22;204;48.942;9.256;2023-12-28T11:02:28;10.40;99.90
435;DHT22;204;48.942;9.256;2023-12-28T11:04:58;10.50;99.90
435;DHT22;204;48.942;9.256;2023-12-28T11:07:26;10.60;99.90
435;DHT22;204;48.942;9.256;2023-12-28T11:10:00;10.70;99.90
435;DHT22;204;48.942;9.256;2023-12-28T11:12:27;10.80;99.90
435;DHT22;204;48.942;9.256;2023-12-28T11:14:54;10.90;99.90
435;DHT22;204;48.942;9.256;2023-12-28T11:17:21;11.00;99.90
435;DHT22;204;48.942;9.256;2023-12-28T11:19:51;11.10;99.90
435;DHT22;204;48.942;9.256;2023-12-28T11:22:19;11.20;99.90
435;DHT22;204;48.942;9.256;2023-12-28T11:24:45;11.20;99.90
435;DHT22;204;48.942;9.256;2023-12-28T11:27:10;11.30;99.90
435;DHT22;204;48.942;9.256;2023-12-28T11:29:37;11.30;99.90
435;DHT22;204;48.942;9.256;2023-12-28T11:32:02;11.40;99.90
435;DHT22;204;48.942;9.256;2023-12-28T11:34:29;11.50;99.90
435;DHT22;204;48.942;9.256;2023-12-28T11:36:56;11.50;99.90
435;DHT22;204;48.942;9.256;2023-12-28T11:39:36;11.60;99.90
435;DHT22;204;48.942;9.256;2023-12-28T11:42:06;11.60;99.90
435;DHT22;204;48.942;9.256;2023-12-28T11:44:37;11.60;99.90
435;DHT22;204;48.942;9.256;2023-12-28T11:47:11;11.60;99.90
435;DHT22;204;48.942;9.256;2023-12-28T11:49:38;11.70;99.90
435;DHT22;204;48.942;9.256;2023-12-28T11:52:05;11.80;99.90
435;DHT22;204;48.942;9.256;2023-12-28T11:54:31;11.80;99.90
435;DHT22;204;48.942;9.256;2023-12-28T11:56:56;11.80;99.90
435;DHT22;204;48.942;9.256;2023-12-28T11:59:22;11.90;99.90
435;DHT22;204;48.942;9.256;2023-12-28T12:01:54;11.90;99.90
435;DHT22;204;48.942;9.256;2023-12-28T12:04:23;12.00;99.90
435;DHT22;204;48.942;9.256;2023-12-28T12:06:48;12.20;99.90
435;DHT22;204;48.942;9.256;2023-12-28T12:09:15;12.40;99.90
435;DHT22;204;48.942;9.256;2023-12-28T12:11:41;12.40;99.90
435;DHT22;204;48.942;9.256;2023-12-28T12:14:10;12.50;99.90
435;DHT22;204;48.942;9.256;2023-12-28T12:16:37;12.50;99.90
435;DHT22;204;48.942;9.256;2023-12-28T12:19:04;12.60;99.90
435;DHT22;204;48.942;9.256;2023-12-28T12:21:30;12.60;99.90
435;DHT22;204;48.942;9.256;2023-12-28T12:23:55;12.70;99.90
435;DHT22;204;48.942;9.256;2023-12-28T12:26:21;12.80;99.90
435;DHT22;204;48.942;9.256;2023-12-28T12:28:47;12.80;99.90
435;DHT22;204;48.942;9.256;2023-12-28T12:31:14;12.80;99.90
435;DHT22;204;48.942;9.256;2023-12-28T12:33:40;12.70;99.90
435;DHT22;204;48.942;9.256;2023-12-28T12:36:07;12.70;99.90
435;DHT22;204;48.942;9.256;2023-12-28T12:38:33;12.60;99.90
435;DHT22;204;48.942;9.256;2023-12-28T12:40:59;12.50;99.90
435;DHT22;204;48.942;9.256;2023-12-28T12:43:25;12.40;99.90
435;DHT22;204;48.942;9.256;2023-12-28T12:45:52;12.50;99.90
435;DHT22;204;48.942;9.256;2023-12-28T12:48:18;12.40;99.90
435;DHT22;204;48.942;9.256;2023-12-28T12:50:44;12.30;99.90
435;DHT22;204;48.942;9.256;2023-12-28T12:53:09;12.30;99.90
435;DHT22;204;48.942;9.256;2023-12-28T12:55:36;12.30;99.90
435;DHT22;204;48.942;9.256;2023-12-28T12:58:05;12.20;99.90
435;DHT22;204;48.942;9.256;2023-12-28T13:00:31;12.20;99.90
435;DHT22;204;48.942;9.256;2023-12-28T13:03:00;12.20;99.90
435;DHT22;204;48.942;9.256;2023-12-28T13:05:26;12.30;99.90
435;DHT22;204;48.942;9.256;2023-12-28T13:07:52;12.30;99.90
435;DHT22;204;48.942;9.256;2023-12-28T13:10:18;12.30;99.90
435;DHT22;204;48.942;9.256;2023-12-28T13:12:43;12.30;99.90
435;DHT22;204;48.942;9.256;2023-12-28T13:15:09;12.30;99.90
435;DHT22;204;48.942;9.256;2023-12-28T13:17:36;12.30;99.90
435;DHT22;204;48.942;9.256;2023-12-28T13:20:03;12.30;99.90
435;DHT22;204;48.942;9.256;2023-12-28T13:22:28;12.30;99.90
435;DHT22;204;48.942;9.256;2023-12-28T13:24:54;12.40;99.90
435;DHT22;204;48.942;9.256;2023-12-28T13:27:20;12.40;99.90
435;DHT22;204;48.942;9.256;2023-12-28T13:29:45;12.40;99.90
435;DHT22;204;48.942;9.256;2023-12-28T13:32:11;12.40;99.90
435;DHT22;204;48.942;9.256;2023-12-28T13:34:36;12.40;99.90
435;DHT22;204;48.942;9.256;2023-12-28T13:37:02;12.40;99.90
435;DHT22;204;48.942;9.256;2023-12-28T13:39:28;12.40;99.90
435;DHT22;204;48.942;9.256;2023-12-28T13:41:54;12.50;99.90
435;DHT22;204;48.942;9.256;2023-12-28T13:44:20;12.50;99.90
435;DHT22;204;48.942;9.256;2023-12-28T13:46:46;12.50;99.90
435;DHT22;204;48.942;9.256;2023-12-28T13:49:11;12.50;99.90
435;DHT22;204;48.942;9.256;2023-12-28T13:51:37;12.40;99.90
435;DHT22;204;48.942;9.256;2023-12-28T13:54:03;12.40;99.90
435;DHT22;204;48.942;9.256;2023-12-28T13:56:28;12.30;1.00
435;DHT22;204;48.942;9.256;2023-12-28T13:58:54;12.20;1.00
435;DHT22;204;48.942;9.256;2023-12-28T14:01:20;12.20;1.00
435;DHT22;204;48.942;9.256;2023-12-28T14:03:45;12.10;1.00
435;DHT22;204;48.942;9.256;2023-12-28T14:06:13;12.10;1.00
435;DHT22;204;48.942;9.256;2023-12-28T14:08:39;12.10;1.00
435;DHT22;204;48.942;9.256;2023-12-28T14:11:04;12.00;1.00
435;DHT22;204;48.942;9.256;2023-12-28T14:13:30;12.00;1.00
435;DHT22;204;48.942;9.256;2023-12-28T14:15:56;12.00;1.00
435;DHT22;204;48.942;9.256;2023-12-28T14:18:22;11.90;1.00
435;DHT22;204;48.942;9.256;2023-12-28T14:20:47;11.90;1.00
435;DHT22;204;48.942;9.256;2023-12-28T14:23:13;11.90;1.00
435;DHT22;204;48.942;9.256;2023-12-28T14:25:39;11.90;1.00
435;DHT22;204;48.942;9.256;2023-12-28T14:28:05;11.90;1.00
435;DHT22;204;48.942;9.256;2023-12-28T14:30:31;11.90;1.00
435;DHT22;204;48.942;9.256;2023-12-28T14:32:57;12.00;1.00
435;DHT22;204;48.942;9.256;2023-12-28T14:35:23;11.90;1.00
435;DHT22;204;48.942;9.256;2023-12-28T14:37:50;11.90;1.00
435;DHT22;204;48.942;9.256;2023-12-28T14:40:16;12.00;1.00
435;DHT22;204;48.942;9.256;2023-12-28T14:42:41;12.00;1.00
435;DHT22;204;48.942;9.256;2023-12-28T14:45:07;12.00;1.00
435;DHT22;204;48.942;9.256;2023-12-28T14:47:33;12.00;1.00
435;DHT22;204;48.942;9.256;2023-12-28T14:49:59;11.90;1.00
435;DHT22;204;48.942;9.256;2023-12-28T14:52:25;11.90;1.00
435;DHT22;204;48.942;9.256;2023-12-28T14:54:51;11.90;1.00
435;DHT22;204;48.942;9.256;2023-12-28T14:57:19;12.00;1.00
435;DHT22;204;48.942;9.256;2023-12-28T14:59:45;12.00;1.00
435;DHT22;204;48.942;9.256;2023-12-28T15:02:10;12.00;1.00
435;DHT22;204;48.942;9.256;2023-12-28T15:04:36;12.00;1.00
435;DHT22;204;48.942;9.256;2023-12-28T15:07:03;12.00;1.00
435;DHT22;204;48.942;9.256;2023-12-28T15:09:29;12.00;1.00
435;DHT22;204;48.942;9.256;2023-12-28T15:11:56;12.00;1.00
435;DHT22;204;48.942;9.256;2023-12-28T15:14:22;12.00;1.00
435;DHT22;204;48.942;9.256;2023-12-28T15:16:48;12.00;1.00
435;DHT22;204;48.942;9.256;2023-12-28T15:19:14;12.00;1.00
435;DHT22;204;48.942;9.256;2023-12-28T15:21:40;12.00;1.00
435;DHT22;204;48.942;9.256;2023-12-28T15:24:07;12.00;1.00
435;DHT22;204;48.942;9.256;2023-12-28T15:26:33;12.00;1.00
435;DHT22;204;48.942;9.256;2023-12-28T15:28:59;12.00;1.00
435;DHT22;204;48.942;9.256;2023-12-28T15:31:24;11.90;1.00
435;DHT22;204;48.942;9.256;2023-12-28T15:33:50;11.90;1.00
435;DHT22;204;48.942;9.256;2023-12-28T15:36:16;11.90;1.00
435;DHT22;204;48.942;9.256;2023-12-28T15:38:42;11.80;1.00
435;DHT22;204;48.942;9.256;2023-12-28T15:41:08;11.80;1.00
435;DHT22;204;48.942;9.256;2023-12-28T15:43:34;11.80;1.00
435;DHT22;204;48.942;9.256;2023-12-28T15:46:00;11.70;1.00
435;DHT22;204;48.942;9.256;2023-12-28T15:48:26;11.70;1.00
435;DHT22;204;48.942;9.256;2023-12-28T15:50:51;11.70;1.00
435;DHT22;204;48.942;9.256;2023-12-28T15:53:17;11.60;1.00
435;DHT22;204;48.942;9.256;2023-12-28T15:55:43;11.60;1.00
435;DHT22;204;48.942;9.256;2023-12-28T15:58:08;11.60;1.00
435;DHT22;204;48.942;9.256;2023-12-28T16:00:34;11.50;1.00
435;DHT22;204;48.942;9.256;2023-12-28T16:03:00;11.50;1.00
435;DHT22;204;48.942;9.256;2023-12-28T16:05:26;11.50;1.00
435;DHT22;204;48.942;9.256;2023-12-28T16:07:52;11.50;1.00
435;DHT22;204;48.942;9.256;2023-12-28T16:10:17;11.40;1.00
435;DHT22;204;48.942;9.256;2023-12-28T16:12:43;11.40;1.00
435;DHT22;204;48.942;9.256;2023-12-28T16:15:09;11.40;1.00
435;DHT22;204;48.942;9.256;2023-12-28T16:17:35;11.40;1.00
435;DHT22;204;48.942;9.256;2023-12-28T16:20:00;11.30;1.00
435;DHT22;204;48.942;9.256;2023-12-28T16:22:26;11.30;1.00
435;DHT22;204;48.942;9.256;2023-12-28T16:24:52;11.30;1.00
435;DHT22;204;48.942;9.256;2023-12-28T16:27:17;11.30;1.00
435;DHT22;204;48.942;9.256;2023-12-28T16:29:43;11.30;1.00
435;DHT22;204;48.942;9.256;2023-12-28T16:32:09;11.30;1.00
435;DHT22;204;48.942;9.256;2023-12-28T16:34:34;11.30;1.00
435;DHT22;204;48.942;9.256;2023-12-28T16:37:01;11.20;1.00
435;DHT22;204;48.942;9.256;2023-12-28T16:39:28;11.20;1.00
435;DHT22;204;48.942;9.256;2023-12-28T16:41:53;11.20;1.00
435;DHT22;204;48.942;9.256;2023-12-28T16:44:19;11.20;1.00
435;DHT22;204;48.942;9.256;2023-12-28T16:46:47;11.20;1.00
435;DHT22;204;48.942;9.256;2023-12-28T16:49:13;11.20;1.00